sensor_id;sensor_type;location;lat;lon;timestamp;temperature;humidity
42833;DHT22;28479;51.478;5.692;2022-08-11T00:01:24;20.20;91.60
42833;DHT22;28479;51.478;5.692;2022-08-11T00:03:56;20.20;91.50
42833;DHT22;28479;51.478;5.692;2022-08-11T00:06:29;20.10;91.60
42833;DHT22;28479;51.478;5.692;2022-08-11T00:08:56;20.00;91.70
42833;DHT22;28479;51.478;5.692;2022-08-11T00:11:35;20.00;91.90
42833;DHT22;28479;51.478;5.692;2022-08-11T00:14:03;20.00;91.90
42833;DHT22;28479;51.478;5.692;2022-08-11T00:16:29;20.00;91.70
42833;DHT22;28479;51.478;5.692;2022-08-11T00:18:56;20.00;91.90
42833;DHT22;28479;51.478;5.692;2022-08-11T00:21:24;19.90;92.10
42833;DHT22;28479;51.478;5.692;2022-08-11T00:23:59;19.80;92.20
42833;DHT22;28479;51.478;5.692;2022-08-11T00:26:27;19.80;92.20
42833;DHT22;28479;51.478;5.692;2022-08-11T00:28:53;19.80;92.20
42833;DHT22;28479;51.478;5.692;2022-08-11T00:31:29;19.80;92.30
42833;DHT22;28479;51.478;5.692;2022-08-11T00:33:57;19.70;92.40
42833;DHT22;28479;51.478;5.692;2022-08-11T00:36:51;19.70;92.30
42833;DHT22;28479;51.478;5.692;2022-08-11T00:39:20;19.70;92.40
42833;DHT22;28479;51.478;5.692;2022-08-11T00:44:42;19.60;92.60
42833;DHT22;28479;51.478;5.692;2022-08-11T00:47:42;19.60;92.80
42833;DHT22;28479;51.478;5.692;2022-08-11T00:59:06;19.50;93.00
42833;DHT22;28479;51.478;5.692;2022-08-11T01:02:03;19.50;93.10
42833;DHT22;28479;51.478;5.692;2022-08-11T01:07:35;19.40;93.10
42833;DHT22;28479;51.478;5.692;2022-08-11T01:18:52;19.40;92.90
42833;DHT22;28479;51.478;5.692;2022-08-11T01:32:59;19.40;93.00
42833;DHT22;28479;51.478;5.692;2022-08-11T01:45:03;19.20;93.20
42833;DHT22;28479;51.478;5.692;2022-08-11T01:47:37;19.30;93.20
42833;DHT22;28479;51.478;5.692;2022-08-11T02:01:24;19.10;93.80
42833;DHT22;28479;51.478;5.692;2022-08-11T02:04:08;19.00;94.10
42833;DHT22;28479;51.478;5.692;2022-08-11T02:12:38;18.90;94.10
42833;DHT22;28479;51.478;5.692;2022-08-11T02:15:23;18.90;94.20
42833;DHT22;28479;51.478;5.692;2022-08-11T02:20:44;18.90;94.20
42833;DHT22;28479;51.478;5.692;2022-08-11T02:23:53;18.90;94.10
42833;DHT22;28479;51.478;5.692;2022-08-11T02:26:53;18.90;94.20
42833;DHT22;28479;51.478;5.692;2022-08-11T02:29:51;18.80;94.30
42833;DHT22;28479;51.478;5.692;2022-08-11T02:32:48;18.70;94.50
42833;DHT22;28479;51.478;5.692;2022-08-11T02:35:44;18.70;94.50
42833;DHT22;28479;51.478;5.692;2022-08-11T02:41:09;18.70;94.60
42833;DHT22;28479;51.478;5.692;2022-08-11T02:44:10;18.60;94.50
42833;DHT22;28479;51.478;5.692;2022-08-11T02:52:50;18.60;94.80
42833;DHT22;28479;51.478;5.692;2022-08-11T02:55:31;18.60;94.70
42833;DHT22;28479;51.478;5.692;2022-08-11T02:58:22;18.60;94.70
42833;DHT22;28479;51.478;5.692;2022-08-11T03:03:49;18.60;94.70
42833;DHT22;28479;51.478;5.692;2022-08-11T03:06:20;18.60;94.80
42833;DHT22;28479;51.478;5.692;2022-08-11T03:08:56;18.60;94.90
42833;DHT22;28479;51.478;5.692;2022-08-11T03:14:55;18.60;95.00
42833;DHT22;28479;51.478;5.692;2022-08-11T03:18:11;18.60;95.10
42833;DHT22;28479;51.478;5.692;2022-08-11T03:20:50;18.50;95.30
42833;DHT22;28479;51.478;5.692;2022-08-11T03:23:28;18.40;95.40
42833;DHT22;28479;51.478;5.692;2022-08-11T03:29:15;18.40;95.70
42833;DHT22;28479;51.478;5.692;2022-08-11T03:34:29;18.30;95.90
42833;DHT22;28479;51.478;5.692;2022-08-11T03:39:47;18.20;96.20
42833;DHT22;28479;51.478;5.692;2022-08-11T03:45:10;18.20;96.00
42833;DHT22;28479;51.478;5.692;2022-08-11T03:47:47;18.20;96.20
42833;DHT22;28479;51.478;5.692;2022-08-11T04:05:31;18.00;96.70
42833;DHT22;28479;51.478;5.692;2022-08-11T04:16:15;18.00;96.70
42833;DHT22;28479;51.478;5.692;2022-08-11T04:19:28;18.00;96.90
42833;DHT22;28479;51.478;5.692;2022-08-11T04:30:35;17.80;97.40
42833;DHT22;28479;51.478;5.692;2022-08-11T04:40:02;17.80;97.70
42833;DHT22;28479;51.478;5.692;2022-08-11T04:42:54;17.80;97.90
42833;DHT22;28479;51.478;5.692;2022-08-11T04:52:15;17.90;97.90
42833;DHT22;28479;51.478;5.692;2022-08-11T05:05:22;17.80;98.30
42833;DHT22;28479;51.478;5.692;2022-08-11T05:10:58;17.90;98.60
42833;DHT22;28479;51.478;5.692;2022-08-11T05:13:43;17.90;98.60
42833;DHT22;28479;51.478;5.692;2022-08-11T05:16:31;17.90;98.60
42833;DHT22;28479;51.478;5.692;2022-08-11T05:19:18;18.00;98.70
42833;DHT22;28479;51.478;5.692;2022-08-11T05:22:07;18.10;98.70
42833;DHT22;28479;51.478;5.692;2022-08-11T05:25:05;18.10;98.70
42833;DHT22;28479;51.478;5.692;2022-08-11T05:28:04;18.20;98.60
42833;DHT22;28479;51.478;5.692;2022-08-11T05:31:02;18.20;98.60
42833;DHT22;28479;51.478;5.692;2022-08-11T05:33:58;18.20;98.70
42833;DHT22;28479;51.478;5.692;2022-08-11T05:37:00;18.30;98.60
42833;DHT22;28479;51.478;5.692;2022-08-11T05:39:32;18.40;98.60
42833;DHT22;28479;51.478;5.692;2022-08-11T05:42:20;18.40;98.70
42833;DHT22;28479;51.478;5.692;2022-08-11T05:45:12;18.50;98.90
42833;DHT22;28479;51.478;5.692;2022-08-11T05:47:58;18.50;98.70
42833;DHT22;28479;51.478;5.692;2022-08-11T05:50:57;18.50;98.70
42833;DHT22;28479;51.478;5.692;2022-08-11T05:53:46;18.60;98.80
42833;DHT22;28479;51.478;5.692;2022-08-11T05:56:32;18.60;98.80
42833;DHT22;28479;51.478;5.692;2022-08-11T05:58:59;18.70;98.80
42833;DHT22;28479;51.478;5.692;2022-08-11T06:01:30;18.70;98.80
42833;DHT22;28479;51.478;5.692;2022-08-11T06:03:59;18.80;98.80
42833;DHT22;28479;51.478;5.692;2022-08-11T06:06:49;18.80;98.60
42833;DHT22;28479;51.478;5.692;2022-08-11T06:10:05;18.90;98.80
42833;DHT22;28479;51.478;5.692;2022-08-11T06:12:28;19.00;98.90
42833;DHT22;28479;51.478;5.692;2022-08-11T06:15:02;19.00;98.90
42833;DHT22;28479;51.478;5.692;2022-08-11T06:17:29;19.10;98.90
42833;DHT22;28479;51.478;5.692;2022-08-11T06:20:04;19.10;98.90
42833;DHT22;28479;51.478;5.692;2022-08-11T06:22:31;19.20;98.90
42833;DHT22;28479;51.478;5.692;2022-08-11T06:25:01;19.30;99.00
42833;DHT22;28479;51.478;5.692;2022-08-11T06:27:30;19.30;99.10
42833;DHT22;28479;51.478;5.692;2022-08-11T06:29:56;19.40;99.10
42833;DHT22;28479;51.478;5.692;2022-08-11T06:32:25;19.50;99.10
42833;DHT22;28479;51.478;5.692;2022-08-11T06:35:04;19.60;98.90
42833;DHT22;28479;51.478;5.692;2022-08-11T06:38:06;19.70;98.90
42833;DHT22;28479;51.478;5.692;2022-08-11T06:43:17;19.90;98.70
42833;DHT22;28479;51.478;5.692;2022-08-11T06:45:52;20.00;98.90
42833;DHT22;28479;51.478;5.692;2022-08-11T06:48:23;20.00;98.80
42833;DHT22;28479;51.478;5.692;2022-08-11T06:50:57;20.20;98.80
42833;DHT22;28479;51.478;5.692;2022-08-11T06:53:50;20.30;98.70
42833;DHT22;28479;51.478;5.692;2022-08-11T06:56:23;20.40;98.40
42833;DHT22;28479;51.478;5.692;2022-08-11T06:59:09;20.60;98.10
42833;DHT22;28479;51.478;5.692;2022-08-11T07:02:21;20.60;97.80
42833;DHT22;28479;51.478;5.692;2022-08-11T07:14:01;21.00;97.60
42833;DHT22;28479;51.478;5.692;2022-08-11T07:16:48;21.10;97.40
42833;DHT22;28479;51.478;5.692;2022-08-11T07:19:19;21.10;97.60
42833;DHT22;28479;51.478;5.692;2022-08-11T07:22:05;21.20;97.70
42833;DHT22;28479;51.478;5.692;2022-08-11T07:25:12;21.30;97.70
42833;DHT22;28479;51.478;5.692;2022-08-11T07:28:13;21.40;97.30
42833;DHT22;28479;51.478;5.692;2022-08-11T07:31:05;21.50;97.20
42833;DHT22;28479;51.478;5.692;2022-08-11T07:33:47;21.60;96.90
42833;DHT22;28479;51.478;5.692;2022-08-11T07:36:15;21.70;96.50
42833;DHT22;28479;51.478;5.692;2022-08-11T07:38:47;21.70;96.70
42833;DHT22;28479;51.478;5.692;2022-08-11T07:41:18;21.80;96.80
42833;DHT22;28479;51.478;5.692;2022-08-11T07:43:46;21.90;96.40
42833;DHT22;28479;51.478;5.692;2022-08-11T07:46:16;22.00;96.40
42833;DHT22;28479;51.478;5.692;2022-08-11T07:49:02;22.10;96.30
42833;DHT22;28479;51.478;5.692;2022-08-11T07:51:47;22.10;96.20
42833;DHT22;28479;51.478;5.692;2022-08-11T07:54:32;22.10;96.30
42833;DHT22;28479;51.478;5.692;2022-08-11T07:56:58;22.20;96.10
42833;DHT22;28479;51.478;5.692;2022-08-11T07:59:24;22.30;96.00
42833;DHT22;28479;51.478;5.692;2022-08-11T08:02:11;22.30;96.00
42833;DHT22;28479;51.478;5.692;2022-08-11T08:04:56;22.40;96.00
42833;DHT22;28479;51.478;5.692;2022-08-11T08:07:41;22.50;96.20
42833;DHT22;28479;51.478;5.692;2022-08-11T08:10:27;22.60;96.30
42833;DHT22;28479;51.478;5.692;2022-08-11T08:13:12;22.80;95.60
42833;DHT22;28479;51.478;5.692;2022-08-11T08:15:57;22.90;95.30
42833;DHT22;28479;51.478;5.692;2022-08-11T08:18:41;23.00;95.20
42833;DHT22;28479;51.478;5.692;2022-08-11T08:21:08;23.10;95.40
42833;DHT22;28479;51.478;5.692;2022-08-11T08:23:42;23.30;95.50
42833;DHT22;28479;51.478;5.692;2022-08-11T08:26:11;23.40;94.90
42833;DHT22;28479;51.478;5.692;2022-08-11T08:29:01;23.40;94.30
42833;DHT22;28479;51.478;5.692;2022-08-11T08:31:48;23.60;93.80
42833;DHT22;28479;51.478;5.692;2022-08-11T08:34:15;23.70;93.80
42833;DHT22;28479;51.478;5.692;2022-08-11T08:36:43;23.80;93.80
42833;DHT22;28479;51.478;5.692;2022-08-11T08:39:11;23.90;94.10
42833;DHT22;28479;51.478;5.692;2022-08-11T08:41:37;24.00;93.90
42833;DHT22;28479;51.478;5.692;2022-08-11T08:44:07;24.10;94.00
42833;DHT22;28479;51.478;5.692;2022-08-11T08:46:36;24.20;93.70
42833;DHT22;28479;51.478;5.692;2022-08-11T08:49:04;24.30;93.50
42833;DHT22;28479;51.478;5.692;2022-08-11T08:51:35;24.30;93.10
42833;DHT22;28479;51.478;5.692;2022-08-11T08:54:08;24.40;93.20
42833;DHT22;28479;51.478;5.692;2022-08-11T08:56:38;24.40;93.00
42833;DHT22;28479;51.478;5.692;2022-08-11T08:59:05;24.40;92.90
42833;DHT22;28479;51.478;5.692;2022-08-11T09:01:56;24.50;93.30
42833;DHT22;28479;51.478;5.692;2022-08-11T09:04:22;24.60;93.30
42833;DHT22;28479;51.478;5.692;2022-08-11T09:06:49;24.70;93.30
42833;DHT22;28479;51.478;5.692;2022-08-11T09:09:15;24.80;93.30
42833;DHT22;28479;51.478;5.692;2022-08-11T09:11:42;24.90;93.30
42833;DHT22;28479;51.478;5.692;2022-08-11T09:14:23;24.90;92.40
42833;DHT22;28479;51.478;5.692;2022-08-11T09:16:50;25.00;93.00
42833;DHT22;28479;51.478;5.692;2022-08-11T09:19:18;25.10;92.70
42833;DHT22;28479;51.478;5.692;2022-08-11T09:21:46;25.10;93.10
42833;DHT22;28479;51.478;5.692;2022-08-11T09:24:31;25.10;92.40
42833;DHT22;28479;51.478;5.692;2022-08-11T09:27:16;25.30;92.60
42833;DHT22;28479;51.478;5.692;2022-08-11T09:29:42;25.50;92.60
42833;DHT22;28479;51.478;5.692;2022-08-11T09:32:11;25.50;92.70
42833;DHT22;28479;51.478;5.692;2022-08-11T09:34:38;25.50;92.60
42833;DHT22;28479;51.478;5.692;2022-08-11T09:37:04;25.60;92.20
42833;DHT22;28479;51.478;5.692;2022-08-11T09:39:49;25.70;92.10
42833;DHT22;28479;51.478;5.692;2022-08-11T09:42:34;25.60;92.00
42833;DHT22;28479;51.478;5.692;2022-08-11T09:45:19;25.80;92.00
42833;DHT22;28479;51.478;5.692;2022-08-11T09:47:45;25.90;92.10
42833;DHT22;28479;51.478;5.692;2022-08-11T09:50:14;26.10;91.40
42833;DHT22;28479;51.478;5.692;2022-08-11T09:52:41;26.20;91.30
42833;DHT22;28479;51.478;5.692;2022-08-11T09:55:08;26.30;91.10
42833;DHT22;28479;51.478;5.692;2022-08-11T09:57:40;26.30;91.10
42833;DHT22;28479;51.478;5.692;2022-08-11T10:00:32;26.40;91.10
42833;DHT22;28479;51.478;5.692;2022-08-11T10:03:02;26.60;90.60
42833;DHT22;28479;51.478;5.692;2022-08-11T10:05:31;26.70;90.30
42833;DHT22;28479;51.478;5.692;2022-08-11T10:08:17;26.90;90.20
42833;DHT22;28479;51.478;5.692;2022-08-11T10:10:44;26.90;87.70
42833;DHT22;28479;51.478;5.692;2022-08-11T10:13:18;27.10;87.20
42833;DHT22;28479;51.478;5.692;2022-08-11T10:15:48;27.10;86.60
42833;DHT22;28479;51.478;5.692;2022-08-11T10:18:17;27.30;87.00
42833;DHT22;28479;51.478;5.692;2022-08-11T10:21:08;27.40;86.90
42833;DHT22;28479;51.478;5.692;2022-08-11T10:23:37;27.50;87.10
42833;DHT22;28479;51.478;5.692;2022-08-11T10:26:27;27.50;86.70
42833;DHT22;28479;51.478;5.692;2022-08-11T10:29:14;27.60;85.50
42833;DHT22;28479;51.478;5.692;2022-08-11T10:31:59;27.70;85.80
42833;DHT22;28479;51.478;5.692;2022-08-11T10:34:46;27.70;85.00
42833;DHT22;28479;51.478;5.692;2022-08-11T10:37:14;27.80;85.50
42833;DHT22;28479;51.478;5.692;2022-08-11T10:39:40;27.90;84.60
42833;DHT22;28479;51.478;5.692;2022-08-11T10:42:08;28.20;83.70
42833;DHT22;28479;51.478;5.692;2022-08-11T10:44:55;28.30;82.80
42833;DHT22;28479;51.478;5.692;2022-08-11T10:47:22;28.30;82.80
42833;DHT22;28479;51.478;5.692;2022-08-11T10:50:09;28.40;81.50
42833;DHT22;28479;51.478;5.692;2022-08-11T10:52:54;28.50;80.40
42833;DHT22;28479;51.478;5.692;2022-08-11T10:55:42;28.50;80.10
42833;DHT22;28479;51.478;5.692;2022-08-11T10:58:27;28.70;79.30
42833;DHT22;28479;51.478;5.692;2022-08-11T11:03:51;28.80;79.60
42833;DHT22;28479;51.478;5.692;2022-08-11T11:09:31;28.90;77.90
42833;DHT22;28479;51.478;5.692;2022-08-11T11:12:24;29.00;76.80
42833;DHT22;28479;51.478;5.692;2022-08-11T11:15:11;29.00;77.00
42833;DHT22;28479;51.478;5.692;2022-08-11T11:18:01;29.10;75.90
42833;DHT22;28479;51.478;5.692;2022-08-11T11:20:47;29.20;74.90
42833;DHT22;28479;51.478;5.692;2022-08-11T11:23:26;29.20;75.50
42833;DHT22;28479;51.478;5.692;2022-08-11T11:29:26;29.40;75.50
42833;DHT22;28479;51.478;5.692;2022-08-11T11:37:45;30.00;73.40
42833;DHT22;28479;51.478;5.692;2022-08-11T11:40:12;30.10;73.30
42833;DHT22;28479;51.478;5.692;2022-08-11T11:42:40;30.00;72.70
42833;DHT22;28479;51.478;5.692;2022-08-11T11:45:08;30.00;73.20
42833;DHT22;28479;51.478;5.692;2022-08-11T11:47:36;29.80;73.20
42833;DHT22;28479;51.478;5.692;2022-08-11T11:50:02;29.80;72.60
42833;DHT22;28479;51.478;5.692;2022-08-11T11:52:29;30.00;72.40
42833;DHT22;28479;51.478;5.692;2022-08-11T11:54:56;30.30;72.90
42833;DHT22;28479;51.478;5.692;2022-08-11T11:57:23;30.30;71.80
42833;DHT22;28479;51.478;5.692;2022-08-11T12:00:08;30.30;71.20
42833;DHT22;28479;51.478;5.692;2022-08-11T12:03:02;30.50;72.50
42833;DHT22;28479;51.478;5.692;2022-08-11T12:05:30;30.70;71.10
42833;DHT22;28479;51.478;5.692;2022-08-11T12:07:58;30.70;70.70
42833;DHT22;28479;51.478;5.692;2022-08-11T12:10:44;30.50;70.50
42833;DHT22;28479;51.478;5.692;2022-08-11T12:13:10;30.70;71.10
42833;DHT22;28479;51.478;5.692;2022-08-11T12:15:56;30.80;70.70
42833;DHT22;28479;51.478;5.692;2022-08-11T12:18:22;30.90;71.20
42833;DHT22;28479;51.478;5.692;2022-08-11T12:20:48;30.90;70.80
42833;DHT22;28479;51.478;5.692;2022-08-11T12:23:14;31.00;70.40
42833;DHT22;28479;51.478;5.692;2022-08-11T12:25:59;30.90;70.50
42833;DHT22;28479;51.478;5.692;2022-08-11T12:28:58;30.80;69.40
42833;DHT22;28479;51.478;5.692;2022-08-11T12:31:28;30.90;70.80
42833;DHT22;28479;51.478;5.692;2022-08-11T12:34:00;31.10;70.60
42833;DHT22;28479;51.478;5.692;2022-08-11T12:36:27;31.40;69.20
42833;DHT22;28479;51.478;5.692;2022-08-11T12:38:53;31.20;69.10
42833;DHT22;28479;51.478;5.692;2022-08-11T12:41:20;31.10;69.20
42833;DHT22;28479;51.478;5.692;2022-08-11T12:44:08;31.10;68.70
42833;DHT22;28479;51.478;5.692;2022-08-11T12:47:07;31.10;69.40
42833;DHT22;28479;51.478;5.692;2022-08-11T12:49:37;31.20;68.50
42833;DHT22;28479;51.478;5.692;2022-08-11T12:52:28;31.30;68.20
42833;DHT22;28479;51.478;5.692;2022-08-11T12:55:11;31.30;67.40
42833;DHT22;28479;51.478;5.692;2022-08-11T12:57:44;31.40;67.40
42833;DHT22;28479;51.478;5.692;2022-08-11T13:00:29;31.60;68.20
42833;DHT22;28479;51.478;5.692;2022-08-11T13:03:18;31.50;67.60
42833;DHT22;28479;51.478;5.692;2022-08-11T13:06:04;31.40;67.70
42833;DHT22;28479;51.478;5.692;2022-08-11T13:08:33;31.10;66.80
42833;DHT22;28479;51.478;5.692;2022-08-11T13:11:00;30.90;67.00
42833;DHT22;28479;51.478;5.692;2022-08-11T13:13:46;31.00;66.20
42833;DHT22;28479;51.478;5.692;2022-08-11T13:16:13;31.10;66.60
42833;DHT22;28479;51.478;5.692;2022-08-11T13:18:40;31.10;66.20
42833;DHT22;28479;51.478;5.692;2022-08-11T13:21:09;31.10;65.80
42833;DHT22;28479;51.478;5.692;2022-08-11T13:23:37;31.10;65.20
42833;DHT22;28479;51.478;5.692;2022-08-11T13:26:03;31.10;65.60
42833;DHT22;28479;51.478;5.692;2022-08-11T13:28:29;31.40;63.90
42833;DHT22;28479;51.478;5.692;2022-08-11T13:30:55;31.30;64.80
42833;DHT22;28479;51.478;5.692;2022-08-11T13:33:47;31.30;65.30
42833;DHT22;28479;51.478;5.692;2022-08-11T13:36:21;31.30;64.60
42833;DHT22;28479;51.478;5.692;2022-08-11T13:38:50;31.30;65.20
42833;DHT22;28479;51.478;5.692;2022-08-11T13:41:17;31.40;65.00
42833;DHT22;28479;51.478;5.692;2022-08-11T13:44:02;31.70;64.00
42833;DHT22;28479;51.478;5.692;2022-08-11T13:46:29;31.60;63.30
42833;DHT22;28479;51.478;5.692;2022-08-11T13:48:55;31.50;62.60
42833;DHT22;28479;51.478;5.692;2022-08-11T13:51:23;31.60;63.10
42833;DHT22;28479;51.478;5.692;2022-08-11T13:54:03;31.70;63.00
42833;DHT22;28479;51.478;5.692;2022-08-11T13:56:31;31.80;63.60
42833;DHT22;28479;51.478;5.692;2022-08-11T13:58:58;31.80;63.50
42833;DHT22;28479;51.478;5.692;2022-08-11T14:01:28;31.70;63.70
42833;DHT22;28479;51.478;5.692;2022-08-11T14:04:02;31.80;63.70
42833;DHT22;28479;51.478;5.692;2022-08-11T14:06:29;32.00;63.20
42833;DHT22;28479;51.478;5.692;2022-08-11T14:08:55;32.30;64.10
42833;DHT22;28479;51.478;5.692;2022-08-11T14:11:21;32.60;63.20
42833;DHT22;28479;51.478;5.692;2022-08-11T14:14:08;32.80;63.40
42833;DHT22;28479;51.478;5.692;2022-08-11T14:16:41;33.00;63.30
42833;DHT22;28479;51.478;5.692;2022-08-11T14:19:11;33.10;63.40
42833;DHT22;28479;51.478;5.692;2022-08-11T14:21:41;33.30;62.90
42833;DHT22;28479;51.478;5.692;2022-08-11T14:24:26;33.70;64.00
42833;DHT22;28479;51.478;5.692;2022-08-11T14:26:53;33.80;61.30
42833;DHT22;28479;51.478;5.692;2022-08-11T14:29:22;33.50;62.50
42833;DHT22;28479;51.478;5.692;2022-08-11T14:32:00;33.60;62.20
42833;DHT22;28479;51.478;5.692;2022-08-11T14:34:28;33.60;62.00
42833;DHT22;28479;51.478;5.692;2022-08-11T14:36:57;33.60;62.20
42833;DHT22;28479;51.478;5.692;2022-08-11T14:39:28;33.60;63.10
42833;DHT22;28479;51.478;5.692;2022-08-11T14:41:57;33.80;64.10
42833;DHT22;28479;51.478;5.692;2022-08-11T14:44:47;33.60;62.90
42833;DHT22;28479;51.478;5.692;2022-08-11T14:47:33;33.60;61.30
42833;DHT22;28479;51.478;5.692;2022-08-11T14:50:00;33.50;61.00
42833;DHT22;28479;51.478;5.692;2022-08-11T14:52:29;33.50;62.10
42833;DHT22;28479;51.478;5.692;2022-08-11T14:54:56;33.70;61.50
42833;DHT22;28479;51.478;5.692;2022-08-11T14:57:41;33.60;60.90
42833;DHT22;28479;51.478;5.692;2022-08-11T15:00:09;33.50;60.60
42833;DHT22;28479;51.478;5.692;2022-08-11T15:02:38;33.40;60.40
42833;DHT22;28479;51.478;5.692;2022-08-11T15:05:26;33.60;60.30
42833;DHT22;28479;51.478;5.692;2022-08-11T15:07:54;33.40;60.30
42833;DHT22;28479;51.478;5.692;2022-08-11T15:10:21;33.50;60.80
42833;DHT22;28479;51.478;5.692;2022-08-11T15:12:47;33.50;59.90
42833;DHT22;28479;51.478;5.692;2022-08-11T15:15:14;33.70;60.30
42833;DHT22;28479;51.478;5.692;2022-08-11T15:18:02;33.90;60.20
42833;DHT22;28479;51.478;5.692;2022-08-11T15:20:29;33.90;59.70
42833;DHT22;28479;51.478;5.692;2022-08-11T15:23:13;34.00;60.20
42833;DHT22;28479;51.478;5.692;2022-08-11T15:26:08;34.20;59.20
42833;DHT22;28479;51.478;5.692;2022-08-11T15:28:38;34.00;58.90
42833;DHT22;28479;51.478;5.692;2022-08-11T15:31:25;33.70;59.90
42833;DHT22;28479;51.478;5.692;2022-08-11T15:34:13;33.70;59.00
42833;DHT22;28479;51.478;5.692;2022-08-11T15:37:11;33.60;58.90
42833;DHT22;28479;51.478;5.692;2022-08-11T15:40:10;33.70;59.00
42833;DHT22;28479;51.478;5.692;2022-08-11T15:43:20;33.70;59.00
42833;DHT22;28479;51.478;5.692;2022-08-11T15:46:10;33.80;58.70
42833;DHT22;28479;51.478;5.692;2022-08-11T15:48:46;33.90;58.60
42833;DHT22;28479;51.478;5.692;2022-08-11T15:51:28;33.90;58.80
42833;DHT22;28479;51.478;5.692;2022-08-11T15:53:57;34.00;58.20
42833;DHT22;28479;51.478;5.692;2022-08-11T15:56:26;33.80;57.70
42833;DHT22;28479;51.478;5.692;2022-08-11T15:58:56;33.60;58.00
42833;DHT22;28479;51.478;5.692;2022-08-11T16:01:42;33.70;57.80
42833;DHT22;28479;51.478;5.692;2022-08-11T16:04:43;33.60;58.10
42833;DHT22;28479;51.478;5.692;2022-08-11T16:07:14;33.70;58.20
42833;DHT22;28479;51.478;5.692;2022-08-11T16:12:13;33.90;58.10
42833;DHT22;28479;51.478;5.692;2022-08-11T16:14:42;34.00;58.30
42833;DHT22;28479;51.478;5.692;2022-08-11T16:17:32;33.90;57.50
42833;DHT22;28479;51.478;5.692;2022-08-11T16:19:58;33.90;59.30
42833;DHT22;28479;51.478;5.692;2022-08-11T16:22:30;33.80;58.80
42833;DHT22;28479;51.478;5.692;2022-08-11T16:25:05;33.60;58.30
42833;DHT22;28479;51.478;5.692;2022-08-11T16:27:35;33.70;58.70
42833;DHT22;28479;51.478;5.692;2022-08-11T16:30:02;33.60;58.30
42833;DHT22;28479;51.478;5.692;2022-08-11T16:32:31;33.60;58.90
42833;DHT22;28479;51.478;5.692;2022-08-11T16:35:03;33.50;57.50
42833;DHT22;28479;51.478;5.692;2022-08-11T16:37:51;33.30;57.20
42833;DHT22;28479;51.478;5.692;2022-08-11T16:40:38;33.30;58.90
42833;DHT22;28479;51.478;5.692;2022-08-11T16:43:06;33.40;60.50
42833;DHT22;28479;51.478;5.692;2022-08-11T16:45:53;33.50;58.50
42833;DHT22;28479;51.478;5.692;2022-08-11T16:48:40;33.30;59.10
42833;DHT22;28479;51.478;5.692;2022-08-11T16:51:09;33.00;58.70
42833;DHT22;28479;51.478;5.692;2022-08-11T16:53:35;33.00;58.60
42833;DHT22;28479;51.478;5.692;2022-08-11T16:56:03;32.90;59.30
42833;DHT22;28479;51.478;5.692;2022-08-11T16:58:32;33.00;59.00
42833;DHT22;28479;51.478;5.692;2022-08-11T17:01:20;32.90;58.80
42833;DHT22;28479;51.478;5.692;2022-08-11T17:03:52;32.90;58.60
42833;DHT22;28479;51.478;5.692;2022-08-11T17:06:43;33.00;58.80
42833;DHT22;28479;51.478;5.692;2022-08-11T17:09:29;33.50;58.90
42833;DHT22;28479;51.478;5.692;2022-08-11T17:12:19;33.80;58.30
42833;DHT22;28479;51.478;5.692;2022-08-11T17:15:09;34.30;58.50
42833;DHT22;28479;51.478;5.692;2022-08-11T17:17:58;35.00;58.50
42833;DHT22;28479;51.478;5.692;2022-08-11T17:20:26;36.20;57.90
42833;DHT22;28479;51.478;5.692;2022-08-11T17:22:53;36.70;57.10
42833;DHT22;28479;51.478;5.692;2022-08-11T17:25:39;37.50;57.00
42833;DHT22;28479;51.478;5.692;2022-08-11T17:28:06;38.10;56.30
42833;DHT22;28479;51.478;5.692;2022-08-11T17:30:33;38.00;56.30
42833;DHT22;28479;51.478;5.692;2022-08-11T17:33:18;38.40;55.90
42833;DHT22;28479;51.478;5.692;2022-08-11T17:36:05;38.30;55.30
42833;DHT22;28479;51.478;5.692;2022-08-11T17:38:31;36.50;55.90
42833;DHT22;28479;51.478;5.692;2022-08-11T17:40:59;34.90;57.20
42833;DHT22;28479;51.478;5.692;2022-08-11T17:43:46;34.80;57.60
42833;DHT22;28479;51.478;5.692;2022-08-11T17:46:31;33.80;58.30
42833;DHT22;28479;51.478;5.692;2022-08-11T17:49:16;32.90;58.90
42833;DHT22;28479;51.478;5.692;2022-08-11T17:51:46;32.30;60.00
42833;DHT22;28479;51.478;5.692;2022-08-11T17:54:33;32.40;60.00
42833;DHT22;28479;51.478;5.692;2022-08-11T17:57:19;32.10;61.00
42833;DHT22;28479;51.478;5.692;2022-08-11T18:00:06;31.80;60.70
42833;DHT22;28479;51.478;5.692;2022-08-11T18:02:36;31.30;61.10
42833;DHT22;28479;51.478;5.692;2022-08-11T18:05:24;31.10;61.70
42833;DHT22;28479;51.478;5.692;2022-08-11T18:07:55;30.80;62.00
42833;DHT22;28479;51.478;5.692;2022-08-11T18:10:41;30.60;62.70
42833;DHT22;28479;51.478;5.692;2022-08-11T18:13:29;30.40;62.40
42833;DHT22;28479;51.478;5.692;2022-08-11T18:16:14;30.20;62.50
42833;DHT22;28479;51.478;5.692;2022-08-11T18:18:59;30.00;62.70
42833;DHT22;28479;51.478;5.692;2022-08-11T18:21:46;29.90;63.40
42833;DHT22;28479;51.478;5.692;2022-08-11T18:24:37;29.90;63.30
42833;DHT22;28479;51.478;5.692;2022-08-11T18:27:27;29.80;63.40
42833;DHT22;28479;51.478;5.692;2022-08-11T18:30:13;29.70;63.80
42833;DHT22;28479;51.478;5.692;2022-08-11T18:33:01;29.50;63.80
42833;DHT22;28479;51.478;5.692;2022-08-11T18:35:54;29.40;63.70
42833;DHT22;28479;51.478;5.692;2022-08-11T18:38:42;29.30;64.30
42833;DHT22;28479;51.478;5.692;2022-08-11T18:41:29;29.10;64.00
42833;DHT22;28479;51.478;5.692;2022-08-11T18:44:16;29.10;65.30
42833;DHT22;28479;51.478;5.692;2022-08-11T18:47:07;29.00;64.20
42833;DHT22;28479;51.478;5.692;2022-08-11T18:49:53;29.10;64.50
42833;DHT22;28479;51.478;5.692;2022-08-11T18:52:40;29.50;64.40
42833;DHT22;28479;51.478;5.692;2022-08-11T18:55:26;29.70;64.30
42833;DHT22;28479;51.478;5.692;2022-08-11T18:58:14;29.40;64.20
42833;DHT22;28479;51.478;5.692;2022-08-11T19:01:00;29.10;64.90
42833;DHT22;28479;51.478;5.692;2022-08-11T19:03:46;28.90;64.60
42833;DHT22;28479;51.478;5.692;2022-08-11T19:06:32;28.50;65.40
42833;DHT22;28479;51.478;5.692;2022-08-11T19:09:17;28.30;65.50
42833;DHT22;28479;51.478;5.692;2022-08-11T19:12:03;28.10;66.50
42833;DHT22;28479;51.478;5.692;2022-08-11T19:14:51;28.00;67.30
42833;DHT22;28479;51.478;5.692;2022-08-11T19:17:39;27.90;67.30
42833;DHT22;28479;51.478;5.692;2022-08-11T19:20:27;27.70;67.10
42833;DHT22;28479;51.478;5.692;2022-08-11T19:23:15;27.70;67.30
42833;DHT22;28479;51.478;5.692;2022-08-11T19:26:02;27.70;66.90
42833;DHT22;28479;51.478;5.692;2022-08-11T19:28:48;27.50;67.20
42833;DHT22;28479;51.478;5.692;2022-08-11T19:31:35;27.40;67.60
42833;DHT22;28479;51.478;5.692;2022-08-11T19:34:22;27.30;68.90
42833;DHT22;28479;51.478;5.692;2022-08-11T19:37:08;27.20;68.30
42833;DHT22;28479;51.478;5.692;2022-08-11T19:39:57;27.10;69.00